createdAt,value
2022-08-07T00:00:56.839Z,73.93
2022-08-07T00:06:01.212Z,74.51
2022-08-07T00:11:04.874Z,74.52
2022-08-07T00:16:07.612Z,74.61
2022-08-07T00:21:56.593Z,74.78
2022-08-07T00:26:49.444Z,75.10
2022-08-07T00:31:53.626Z,75.41
2022-08-07T00:36:55.844Z,75.42
2022-08-07T00:42:01.384Z,75.51
2022-08-07T00:47:06.447Z,75.56
2022-08-07T00:52:17.581Z,75.51
2022-08-07T00:57:23.081Z,75.42
2022-08-07T01:02:28.868Z,75.42
2022-08-07T01:07:31.713Z,75.47
2022-08-07T01:12:33.690Z,75.68
2022-08-07T01:17:35.585Z,75.57
2022-08-07T01:22:38.182Z,75.53
2022-08-07T01:27:55.602Z,75.54
2022-08-07T01:32:58.322Z,75.65
2022-08-07T01:37:59.587Z,75.94
2022-08-07T01:43:00.836Z,76.00
2022-08-07T01:48:19.976Z,76.21
2022-08-07T01:54:08.583Z,76.15
2022-08-07T01:58:53.544Z,76.26
2022-08-07T02:04:02.849Z,76.11
2022-08-07T02:09:09.108Z,76.35
2022-08-07T02:14:36.102Z,76.26
2022-08-07T02:20:07.817Z,76.19
2022-08-07T02:25:00.054Z,76.32
2022-08-07T02:30:07.064Z,76.44
2022-08-07T02:35:10.304Z,76.42
2022-08-07T02:40:30.742Z,76.38
2022-08-07T02:46:00.659Z,76.29
2022-08-07T02:51:06.374Z,76.23
2022-08-07T02:56:21.276Z,76.19
2022-08-07T03:01:35.370Z,76.27
2022-08-07T03:06:38.991Z,76.21
2022-08-07T03:11:52.206Z,76.00
2022-08-07T03:16:59.280Z,76.01
2022-08-07T03:22:01.578Z,75.91
2022-08-07T03:27:05.503Z,75.61
2022-08-07T03:32:13.019Z,75.51
2022-08-07T03:37:19.048Z,75.63
2022-08-07T03:42:29.559Z,75.54
2022-08-07T03:47:47.931Z,75.61
2022-08-07T03:52:55.046Z,75.63
2022-08-07T03:58:32.482Z,75.46
2022-08-07T04:03:19.023Z,75.26
2022-08-07T04:08:23.210Z,75.01
2022-08-07T04:13:27.574Z,74.88
2022-08-07T04:18:58.695Z,75.05
2022-08-07T04:24:06.008Z,75.08
2022-08-07T04:29:10.992Z,75.20
2022-08-07T04:34:16.602Z,75.13
2022-08-07T04:39:21.845Z,75.17
2022-08-07T04:44:27.008Z,75.04
2022-08-07T04:50:04.526Z,74.52
2022-08-07T04:58:07.319Z,74.25
2022-08-07T05:00:46.898Z,73.72
2022-08-07T05:05:58.147Z,73.48
2022-08-07T05:11:19.483Z,73.11
2022-08-07T05:16:22.134Z,72.73
2022-08-07T05:22:00.220Z,72.42
2022-08-07T05:26:54.236Z,69.84
2022-08-07T05:31:56.761Z,60.43
2022-08-07T05:36:58.683Z,50.66
2022-08-07T05:42:05.368Z,44.22
2022-08-07T05:47:17.872Z,37.86
2022-08-07T05:52:29.769Z,32.85
2022-08-07T05:57:34.640Z,30.13
2022-08-07T06:02:39.786Z,27.72
2022-08-07T06:08:14.504Z,25.94
2022-08-07T06:13:05.236Z,24.92
2022-08-07T06:18:15.852Z,24.30
2022-08-07T06:23:46.850Z,23.40
2022-08-07T06:28:59.333Z,22.90
2022-08-07T06:34:02.475Z,22.36
2022-08-07T06:40:16.544Z,22.05
2022-08-07T06:44:26.577Z,22.09
2022-08-07T06:49:35.603Z,21.42
2022-08-07T06:55:33.881Z,21.49
2022-08-07T07:00:18.302Z,21.23
2022-08-07T07:06:04.860Z,20.85
2022-08-07T07:10:47.267Z,20.66
2022-08-07T07:16:02.332Z,21.07
2022-08-07T07:21:19.232Z,21.43
2022-08-07T07:26:34.473Z,21.66
2022-08-07T07:31:44.497Z,21.52
2022-08-07T07:36:52.656Z,21.65
2022-08-07T07:42:08.896Z,22.00
2022-08-07T07:47:23.069Z,22.03
2022-08-07T07:52:26.277Z,22.74
2022-08-07T07:57:43.900Z,23.81
2022-08-07T08:03:04.816Z,23.27
2022-08-07T08:08:10.116Z,23.73
2022-08-07T08:13:53.424Z,24.41
2022-08-07T08:18:56.007Z,24.47
2022-08-07T08:24:36.265Z,24.24
2022-08-07T08:29:54.703Z,25.37
2022-08-07T08:34:58.448Z,25.64
2022-08-07T08:40:01.166Z,25.68
2022-08-07T08:45:41.546Z,25.99
2022-08-07T08:51:03.316Z,26.33
2022-08-07T08:56:24.675Z,26.21
2022-08-07T09:01:46.486Z,26.47
2022-08-07T09:07:12.273Z,27.54
2022-08-07T09:12:33.106Z,28.10
2022-08-07T09:18:16.745Z,28.13
2022-08-07T09:24:28.801Z,28.12
2022-08-07T09:30:05.754Z,28.32
2022-08-07T09:34:53.958Z,28.09
2022-08-07T09:40:05.780Z,27.61
2022-08-07T09:47:20.048Z,28.00
2022-08-07T09:50:52.414Z,28.84
2022-08-07T09:56:34.138Z,28.83
2022-08-07T10:02:16.715Z,27.99
2022-08-07T10:07:55.362Z,29.12
2022-08-07T10:14:01.378Z,29.84
2022-08-07T10:19:21.611Z,29.56
2022-08-07T10:25:00.052Z,29.34
2022-08-07T10:30:33.009Z,28.63
2022-08-07T10:36:05.181Z,28.49
2022-08-07T10:41:47.210Z,29.68
2022-08-07T10:46:53.679Z,29.74
2022-08-07T10:52:22.523Z,30.07
2022-08-07T10:58:12.215Z,30.42
2022-08-07T11:03:37.923Z,30.66
2022-08-07T11:08:56.900Z,29.83
2022-08-07T11:14:46.136Z,30.09
2022-08-07T11:19:55.218Z,30.98
2022-08-07T11:25:15.237Z,30.55
2022-08-07T11:30:19.998Z,29.88
2022-08-07T11:36:05.810Z,28.24
2022-08-07T11:41:18.238Z,27.96
2022-08-07T11:47:03.978Z,27.95
2022-08-07T11:52:35.819Z,28.04
2022-08-07T11:58:16.703Z,29.92
2022-08-07T12:03:59.707Z,31.51
2022-08-07T12:09:16.412Z,32.05
2022-08-07T12:14:21.178Z,31.89
2022-08-07T12:19:25.175Z,32.00
2022-08-07T12:25:08.057Z,31.70
2022-08-07T12:30:10.277Z,32.53
2022-08-07T12:35:15.287Z,34.54
2022-08-07T12:40:46.414Z,35.18
2022-08-07T12:45:52.260Z,36.17
2022-08-07T12:51:12.868Z,36.30
2022-08-07T12:56:26.629Z,35.85
2022-08-07T13:01:50.114Z,36.43
2022-08-07T13:08:13.663Z,36.73
2022-08-07T13:13:01.597Z,36.67
2022-08-07T13:18:26.510Z,36.63
2022-08-07T13:24:01.537Z,36.36
2022-08-07T13:29:06.754Z,35.34
2022-08-07T13:34:32.595Z,34.09
2022-08-07T13:40:34.847Z,33.67
2022-08-07T13:46:12.195Z,33.60
2022-08-07T13:51:00.583Z,34.20
2022-08-07T13:56:04.666Z,34.58
2022-08-07T14:01:15.795Z,34.74
2022-08-07T14:06:24.743Z,34.84
2022-08-07T14:11:53.398Z,34.64
2022-08-07T14:17:32.067Z,34.56
2022-08-07T14:22:34.616Z,34.08
2022-08-07T14:28:11.750Z,33.10
2022-08-07T14:33:04.660Z,33.89
2022-08-07T14:38:08.497Z,34.44
2022-08-07T14:43:58.070Z,35.19
2022-08-07T14:48:56.578Z,35.32
2022-08-07T14:54:30.234Z,35.57
2022-08-07T15:00:05.354Z,35.69
2022-08-07T15:04:53.292Z,36.01
2022-08-07T15:10:01.332Z,35.96
2022-08-07T15:15:22.235Z,36.39
2022-08-07T15:25:55.936Z,36.98
2022-08-07T15:31:05.556Z,38.00
2022-08-07T15:36:08.711Z,38.87
2022-08-07T15:41:24.446Z,38.95
2022-08-07T15:46:49.951Z,39.19
2022-08-07T15:57:00.378Z,39.99
2022-08-07T16:02:04.334Z,40.32
2022-08-07T16:08:30.536Z,41.02
2022-08-07T16:13:05.382Z,41.73
2022-08-07T16:18:50.759Z,42.01
2022-08-07T16:24:35.106Z,41.86
2022-08-07T16:30:11.001Z,40.69
2022-08-07T16:35:58.886Z,40.99
2022-08-07T16:41:41.740Z,41.01
2022-08-07T16:47:45.235Z,41.47
2022-08-07T16:54:02.907Z,41.72
2022-08-07T16:59:15.277Z,41.59
2022-08-07T17:04:35.061Z,41.84
2022-08-07T17:10:08.199Z,42.48
2022-08-07T17:15:13.099Z,42.78
2022-08-07T17:20:40.527Z,43.25
2022-08-07T17:25:52.893Z,43.90
2022-08-07T17:30:59.485Z,44.30
2022-08-07T17:36:19.924Z,44.46
2022-08-07T17:42:02.041Z,44.78
2022-08-07T17:47:16.934Z,45.41
2022-08-07T17:52:46.542Z,46.10
2022-08-07T17:58:01.639Z,46.79
2022-08-07T18:03:18.113Z,47.55
2022-08-07T18:08:27.453Z,48.14
2022-08-07T18:14:10.105Z,48.68
2022-08-07T18:21:12.640Z,49.29
2022-08-07T18:24:51.456Z,49.73
2022-08-07T18:30:31.377Z,50.38
2022-08-07T18:35:51.959Z,50.69
2022-08-07T18:41:09.345Z,51.48
2022-08-07T18:46:27.755Z,51.92
2022-08-07T18:52:35.135Z,52.63
2022-08-07T18:57:29.659Z,53.65
2022-08-07T19:03:16.553Z,53.66
2022-08-07T19:08:33.068Z,54.02
2022-08-07T19:14:11.708Z,54.37
2022-08-07T19:19:48.761Z,54.64
2022-08-07T19:24:52.200Z,55.09
2022-08-07T19:31:05.678Z,55.25
2022-08-07T19:35:26.088Z,55.63
2022-08-07T19:40:35.956Z,56.15
2022-08-07T19:46:04.816Z,56.59
2022-08-07T19:51:19.993Z,56.60
2022-08-07T19:58:01.917Z,56.68
2022-08-07T20:01:57.862Z,57.14
2022-08-07T20:06:59.986Z,57.38
2022-08-07T20:12:34.922Z,57.81
2022-08-07T20:17:31.890Z,58.05
2022-08-07T20:22:45.339Z,58.26
2022-08-07T20:27:58.050Z,58.39
2022-08-07T20:33:03.936Z,58.73
2022-08-07T20:38:07.067Z,59.12
2022-08-07T20:43:19.382Z,59.23
2022-08-07T20:48:30.327Z,59.69
2022-08-07T20:54:03.141Z,59.67
2022-08-07T20:59:03.609Z,59.73
2022-08-07T21:04:22.947Z,59.78
2022-08-07T21:09:51.520Z,59.86
2022-08-07T21:14:56.215Z,59.96
2022-08-07T21:20:04.869Z,59.83
2022-08-07T21:25:19.484Z,59.90
2022-08-07T21:30:31.274Z,59.97
2022-08-07T21:36:31.205Z,60.02
2022-08-07T21:42:00.530Z,60.03
2022-08-07T21:47:12.340Z,60.19
2022-08-07T21:52:55.664Z,60.28
2022-08-07T21:58:12.265Z,60.39
2022-08-07T22:03:47.229Z,60.66
2022-08-07T22:08:55.224Z,60.83
2022-08-07T22:13:59.330Z,60.94
2022-08-07T22:19:08.174Z,60.94
2022-08-07T22:24:16.725Z,61.11
2022-08-07T22:29:48.407Z,61.12
2022-08-07T22:34:56.059Z,61.29
2022-08-07T22:40:17.337Z,61.48
2022-08-07T22:46:21.280Z,61.62
2022-08-07T22:51:14.670Z,62.48
2022-08-07T22:56:28.777Z,62.09
2022-08-07T23:01:49.336Z,62.08
2022-08-07T23:07:33.634Z,62.47
2022-08-07T23:12:54.894Z,62.92
2022-08-07T23:18:05.467Z,62.78
2022-08-07T23:24:06.426Z,62.78
2022-08-07T23:29:43.540Z,62.86
2022-08-07T23:35:06.692Z,62.93
2022-08-07T23:40:14.187Z,63.23
2022-08-07T23:46:01.726Z,63.69
2022-08-07T23:50:54.567Z,64.26
2022-08-07T23:56:13.757Z,64.44
